createdAt,value
2023-04-15T00:00:44.147Z,81.05
2023-04-15T00:01:47.135Z,80.56
2023-04-15T00:02:50.100Z,80.76
2023-04-15T00:03:55.011Z,80.89
2023-04-15T00:04:58.011Z,80.73
2023-04-15T00:06:01.239Z,80.75
2023-04-15T00:07:04.441Z,80.70
2023-04-15T00:08:07.799Z,80.65
2023-04-15T00:09:10.595Z,80.37
2023-04-15T00:10:13.448Z,80.38
2023-04-15T00:11:16.514Z,80.43
2023-04-15T00:12:19.320Z,80.84
2023-04-15T00:13:22.210Z,80.84
2023-04-15T00:14:25.048Z,80.67
2023-04-15T00:15:28.365Z,80.65
2023-04-15T00:16:31.251Z,80.91
2023-04-15T00:17:34.409Z,80.80
2023-04-15T00:18:38.692Z,80.83
2023-04-15T00:19:42.146Z,80.95
2023-04-15T00:20:45.007Z,80.95
2023-04-15T00:21:47.895Z,80.98
2023-04-15T00:22:50.863Z,80.78
2023-04-15T00:23:55.083Z,80.68
2023-04-15T00:24:57.903Z,80.88
2023-04-15T00:26:00.754Z,81.10
2023-04-15T00:27:03.686Z,81.14
2023-04-15T00:28:06.577Z,81.18
2023-04-15T00:29:09.540Z,81.07
2023-04-15T00:30:13.120Z,81.13
2023-04-15T00:31:16.723Z,81.35
2023-04-15T00:32:19.786Z,81.37
2023-04-15T00:33:22.645Z,81.19
2023-04-15T00:34:25.485Z,81.07
2023-04-15T00:35:28.330Z,81.25
2023-04-15T00:36:31.152Z,81.29
2023-04-15T00:37:34.006Z,81.25
2023-04-15T00:38:40.037Z,81.40
2023-04-15T00:39:43.148Z,81.50
2023-04-15T00:40:46.235Z,81.38
2023-04-15T00:41:49.807Z,81.33
2023-04-15T00:42:53.702Z,80.90
2023-04-15T00:43:56.630Z,81.09
2023-04-15T00:44:59.475Z,80.89
2023-04-15T00:46:03.646Z,80.88
2023-04-15T00:47:07.383Z,80.80
2023-04-15T00:48:10.853Z,80.76
2023-04-15T00:49:14.464Z,80.53
2023-04-15T00:50:17.487Z,80.56
2023-04-15T00:51:20.404Z,80.51
2023-04-15T00:52:23.421Z,80.80
2023-04-15T00:53:26.271Z,80.97
2023-04-15T00:54:29.203Z,81.03
2023-04-15T00:55:35.203Z,80.93
2023-04-15T00:56:42.257Z,81.01
2023-04-15T00:57:46.023Z,80.97
2023-04-15T00:58:49.546Z,80.97
2023-04-15T00:59:54.045Z,80.86
2023-04-15T01:00:58.620Z,81.04
2023-04-15T01:02:01.720Z,80.99
2023-04-15T01:03:04.878Z,81.11
2023-04-15T01:04:08.373Z,81.06
2023-04-15T01:05:11.367Z,81.17
2023-04-15T01:06:15.405Z,81.27
2023-04-15T01:07:18.720Z,81.01
2023-04-15T01:08:21.550Z,81.17
2023-04-15T01:09:24.516Z,81.22
2023-04-15T01:10:27.490Z,81.15
2023-04-15T01:11:32.013Z,81.08
2023-04-15T01:12:35.607Z,81.15
2023-04-15T01:13:38.815Z,81.36
2023-04-15T01:14:41.709Z,81.21
2023-04-15T01:15:45.366Z,81.09
2023-04-15T01:16:48.215Z,81.29
2023-04-15T01:17:51.573Z,81.22
2023-04-15T01:18:54.651Z,81.14
2023-04-15T01:20:01.292Z,81.14
2023-04-15T01:21:05.171Z,81.75
2023-04-15T01:22:08.180Z,81.36
2023-04-15T01:23:11.416Z,81.20
2023-04-15T01:24:17.693Z,81.13
2023-04-15T01:25:23.875Z,80.90
2023-04-15T01:26:27.201Z,80.79
2023-04-15T01:27:30.272Z,80.64
2023-04-15T01:28:34.318Z,80.63
2023-04-15T01:29:40.064Z,80.42
2023-04-15T01:30:42.932Z,80.18
2023-04-15T01:31:56.474Z,80.12
2023-04-15T01:32:59.388Z,80.18
2023-04-15T01:34:02.706Z,80.42
2023-04-15T01:35:05.757Z,80.47
2023-04-15T01:36:11.270Z,80.57
2023-04-15T01:37:14.260Z,80.49
2023-04-15T01:38:17.538Z,80.28
2023-04-15T01:39:20.732Z,80.46
2023-04-15T01:40:24.104Z,80.53
2023-04-15T01:41:28.685Z,80.59
2023-04-15T01:42:31.530Z,80.53
2023-04-15T01:43:34.404Z,80.36
2023-04-15T01:44:37.749Z,80.27
2023-04-15T01:45:40.607Z,80.22
2023-04-15T01:46:43.573Z,80.20
2023-04-15T01:47:46.669Z,80.27
2023-04-15T01:48:49.571Z,80.20
2023-04-15T01:49:52.924Z,80.10
2023-04-15T01:50:59.140Z,80.03
2023-04-15T01:52:02.005Z,79.88
2023-04-15T01:53:05.202Z,79.59
2023-04-15T01:54:08.321Z,79.64
2023-04-15T01:55:11.793Z,79.95
2023-04-15T01:56:16.815Z,79.97
2023-04-15T01:57:19.730Z,79.99
2023-04-15T01:58:23.807Z,79.96
2023-04-15T01:59:27.041Z,79.82
2023-04-15T02:00:30.069Z,79.94
2023-04-15T02:01:33.373Z,80.05
2023-04-15T02:02:37.296Z,79.68
2023-04-15T02:03:40.827Z,79.52
2023-04-15T02:04:43.900Z,79.58
2023-04-15T02:05:46.798Z,79.67
2023-04-15T02:06:49.996Z,79.69
2023-04-15T02:07:53.494Z,79.74
2023-04-15T02:08:56.359Z,79.69
2023-04-15T02:09:59.773Z,79.72
2023-04-15T02:11:02.646Z,79.64
2023-04-15T02:12:05.676Z,79.57
2023-04-15T02:13:08.679Z,79.77
2023-04-15T02:14:11.683Z,79.76
2023-04-15T02:15:14.561Z,79.94
2023-04-15T02:16:19.041Z,79.87
2023-04-15T02:17:22.106Z,79.83
2023-04-15T02:18:25.053Z,79.78
2023-04-15T02:19:27.920Z,79.70
2023-04-15T02:20:32.117Z,79.78
2023-04-15T02:21:37.657Z,79.82
2023-04-15T02:22:40.599Z,79.83
2023-04-15T02:23:43.542Z,79.67
2023-04-15T02:24:47.580Z,79.35
2023-04-15T02:25:53.936Z,79.23
2023-04-15T02:26:57.454Z,79.20
2023-04-15T02:28:00.360Z,79.26
2023-04-15T02:29:03.278Z,79.20
2023-04-15T02:30:06.675Z,79.14
2023-04-15T02:31:10.914Z,79.22
2023-04-15T02:32:14.637Z,79.05
2023-04-15T02:33:17.808Z,79.07
2023-04-15T02:34:20.697Z,78.89
2023-04-15T02:35:23.938Z,79.10
2023-04-15T02:36:28.361Z,79.29
2023-04-15T02:37:32.434Z,79.33
2023-04-15T02:38:35.273Z,79.72
2023-04-15T02:39:38.200Z,79.87
2023-04-15T02:40:41.201Z,79.85
2023-04-15T02:41:45.188Z,79.89
2023-04-15T02:42:48.075Z,79.81
2023-04-15T02:43:50.869Z,79.77
2023-04-15T02:44:53.715Z,79.96
2023-04-15T02:45:56.617Z,79.91
2023-04-15T02:47:00.222Z,79.87
2023-04-15T02:48:07.308Z,80.26
2023-04-15T02:49:10.278Z,80.35
2023-04-15T02:50:14.567Z,80.44
2023-04-15T02:51:23.723Z,80.61
2023-04-15T02:52:26.623Z,80.72
2023-04-15T02:53:29.461Z,80.69
2023-04-15T02:54:33.867Z,81.08
2023-04-15T02:55:36.701Z,81.24
2023-04-15T02:56:39.494Z,81.28
2023-04-15T02:57:42.725Z,81.30
2023-04-15T02:58:46.984Z,81.41
2023-04-15T02:59:49.813Z,81.26
2023-04-15T03:00:53.198Z,81.28
2023-04-15T03:01:58.005Z,81.29
2023-04-15T03:03:07.917Z,81.27
2023-04-15T03:04:10.996Z,81.14
2023-04-15T03:05:15.313Z,81.01
2023-04-15T03:06:18.379Z,81.01
2023-04-15T03:07:21.179Z,80.93
2023-04-15T03:08:24.123Z,80.96
2023-04-15T03:09:27.133Z,80.99
2023-04-15T03:10:29.998Z,80.89
2023-04-15T03:11:36.063Z,81.02
2023-04-15T03:12:39.326Z,80.97
2023-04-15T03:13:43.167Z,81.08
2023-04-15T03:14:45.995Z,81.22
2023-04-15T03:15:48.971Z,81.15
2023-04-15T03:16:53.193Z,81.06
2023-04-15T03:17:56.129Z,81.03
2023-04-15T03:18:59.173Z,81.08
2023-04-15T03:20:05.426Z,81.04
2023-04-15T03:21:08.610Z,80.91
2023-04-15T03:22:11.611Z,80.87
2023-04-15T03:23:14.500Z,80.89
2023-04-15T03:24:17.421Z,80.97
2023-04-15T03:25:20.243Z,80.79
2023-04-15T03:26:31.076Z,80.57
2023-04-15T03:27:33.978Z,80.41
2023-04-15T03:28:36.865Z,80.41
2023-04-15T03:29:39.671Z,80.39
2023-04-15T03:30:43.065Z,80.56
2023-04-15T03:31:45.912Z,80.46
2023-04-15T03:32:48.743Z,80.64
2023-04-15T03:33:51.904Z,80.49
2023-04-15T03:34:54.761Z,80.35
2023-04-15T03:35:58.109Z,80.28
2023-04-15T03:37:00.942Z,80.21
2023-04-15T03:38:03.806Z,80.07
2023-04-15T03:39:06.857Z,79.97
2023-04-15T03:40:11.044Z,79.96
2023-04-15T03:41:14.387Z,80.17
2023-04-15T03:42:17.202Z,80.08
2023-04-15T03:43:20.109Z,79.96
2023-04-15T03:44:22.932Z,80.23
2023-04-15T03:45:25.986Z,80.20
2023-04-15T03:46:29.176Z,80.18
2023-04-15T03:47:32.374Z,80.19
2023-04-15T03:48:35.200Z,80.29
2023-04-15T03:49:38.572Z,80.46
2023-04-15T03:50:41.450Z,80.63
2023-04-15T03:51:44.261Z,80.83
2023-04-15T03:52:48.642Z,80.88
2023-04-15T03:53:52.553Z,81.15
2023-04-15T03:54:55.390Z,81.35
2023-04-15T03:55:58.263Z,81.38
2023-04-15T03:57:01.101Z,81.47
2023-04-15T03:58:03.913Z,81.62
2023-04-15T03:59:06.796Z,81.70
2023-04-15T04:00:14.161Z,81.70
2023-04-15T04:01:17.798Z,81.75
2023-04-15T04:02:20.753Z,81.98
2023-04-15T04:03:23.882Z,81.95
2023-04-15T04:04:27.294Z,81.83
2023-04-15T04:05:30.241Z,81.83
2023-04-15T04:06:33.218Z,81.72
2023-04-15T04:07:36.103Z,81.70
2023-04-15T04:08:39.021Z,81.65
2023-04-15T04:09:43.750Z,81.62
2023-04-15T04:10:47.370Z,81.68
2023-04-15T04:11:50.182Z,81.79
2023-04-15T04:12:53.295Z,81.70
2023-04-15T04:13:56.288Z,81.75
2023-04-15T04:14:59.185Z,81.89
2023-04-15T04:16:02.214Z,81.85
2023-04-15T04:17:05.185Z,81.87
2023-04-15T04:18:08.626Z,81.88
2023-04-15T04:19:12.223Z,82.09
2023-04-15T04:20:15.098Z,82.03
2023-04-15T04:21:18.339Z,81.93
2023-04-15T04:22:25.336Z,81.91
2023-04-15T04:23:28.272Z,81.85
2023-04-15T04:24:31.126Z,81.79
2023-04-15T04:25:34.447Z,81.74
2023-04-15T04:26:37.312Z,81.70
2023-04-15T04:27:40.268Z,81.84
2023-04-15T04:28:43.344Z,81.74
2023-04-15T04:29:48.831Z,81.80
2023-04-15T04:30:51.952Z,81.76
2023-04-15T04:31:54.783Z,81.92
2023-04-15T04:32:57.700Z,81.92
2023-04-15T04:34:00.535Z,81.85
2023-04-15T04:35:03.382Z,81.89
2023-04-15T04:36:06.878Z,81.84
2023-04-15T04:37:09.680Z,81.86
2023-04-15T04:38:12.761Z,82.16
2023-04-15T04:39:15.590Z,82.40
2023-04-15T04:40:18.522Z,82.45
2023-04-15T04:41:21.425Z,82.40
2023-04-15T04:42:24.363Z,82.47
2023-04-15T04:43:27.459Z,82.42
2023-04-15T04:44:30.312Z,82.37
2023-04-15T04:45:33.249Z,82.50
2023-04-15T04:46:36.080Z,82.41
2023-04-15T04:47:38.962Z,82.34
2023-04-15T04:48:42.381Z,82.36
2023-04-15T04:49:45.305Z,82.67
2023-04-15T04:50:48.399Z,82.71
2023-04-15T04:51:51.340Z,82.71
2023-04-15T04:52:54.240Z,82.76
2023-04-15T04:53:57.905Z,82.91
2023-04-15T04:55:00.825Z,82.74
2023-04-15T04:56:03.647Z,82.60
2023-04-15T04:57:06.522Z,82.85
2023-04-15T04:58:09.372Z,82.63
2023-04-15T04:59:12.208Z,82.62
2023-04-15T05:00:15.331Z,82.66
2023-04-15T05:01:18.691Z,83.01
2023-04-15T05:02:21.901Z,83.02
2023-04-15T05:03:24.897Z,82.89
2023-04-15T05:04:27.835Z,82.74
2023-04-15T05:05:30.703Z,82.91
2023-04-15T05:06:33.994Z,82.77
2023-04-15T05:07:36.905Z,82.76
2023-04-15T05:08:40.479Z,82.54
2023-04-15T05:09:43.672Z,82.46
2023-04-15T05:10:46.836Z,82.45
2023-04-15T05:11:49.742Z,82.47
2023-04-15T05:12:53.287Z,82.58
2023-04-15T05:13:56.666Z,82.37
2023-04-15T05:14:59.568Z,82.27
2023-04-15T05:16:02.685Z,82.15
2023-04-15T05:17:05.614Z,82.53
2023-04-15T05:18:08.566Z,82.51
2023-04-15T05:19:11.422Z,82.79
2023-04-15T05:20:15.036Z,82.74
2023-04-15T05:21:17.890Z,82.63
2023-04-15T05:22:20.843Z,82.58
2023-04-15T05:23:23.734Z,82.38
2023-04-15T05:24:26.697Z,82.28
2023-04-15T05:25:29.579Z,82.35
2023-04-15T05:26:32.815Z,82.12
2023-04-15T05:27:35.613Z,82.26
2023-04-15T05:28:38.538Z,82.04
2023-04-15T05:29:41.341Z,82.02
2023-04-15T05:30:44.418Z,82.07
2023-04-15T05:31:47.446Z,82.04
2023-04-15T05:32:50.394Z,82.09
2023-04-15T05:33:53.399Z,82.29
2023-04-15T05:34:56.195Z,82.30
2023-04-15T05:35:59.018Z,82.25
2023-04-15T05:37:02.029Z,82.28
2023-04-15T05:38:05.019Z,82.57
2023-04-15T05:39:08.477Z,82.69
2023-04-15T05:40:11.885Z,82.50
2023-04-15T05:41:19.605Z,82.14
2023-04-15T05:42:22.814Z,82.09
2023-04-15T05:43:25.900Z,82.04
2023-04-15T05:44:28.698Z,81.79
2023-04-15T05:45:31.531Z,81.73
2023-04-15T05:46:34.463Z,81.54
2023-04-15T05:47:38.609Z,81.43
2023-04-15T05:48:41.621Z,81.37
2023-04-15T05:49:44.498Z,81.36
2023-04-15T05:50:47.375Z,81.29
2023-04-15T05:51:50.343Z,81.35
2023-04-15T05:52:53.172Z,81.32
2023-04-15T05:53:56.012Z,81.11
2023-04-15T05:54:58.949Z,81.11
2023-04-15T05:56:01.993Z,81.12
2023-04-15T05:57:05.277Z,81.09
2023-04-15T05:58:08.356Z,80.91
2023-04-15T05:59:11.205Z,81.17
2023-04-15T06:00:14.579Z,81.13
2023-04-15T06:01:17.490Z,81.23
2023-04-15T06:02:20.704Z,80.81
2023-04-15T06:03:24.306Z,81.01
2023-04-15T06:04:27.303Z,81.07
2023-04-15T06:05:30.604Z,81.29
2023-04-15T06:06:33.923Z,80.76
2023-04-15T06:07:38.202Z,80.82
2023-04-15T06:08:41.024Z,81.30
2023-04-15T06:09:43.856Z,81.38
2023-04-15T06:10:47.413Z,81.51
2023-04-15T06:11:50.310Z,81.38
2023-04-15T06:12:54.546Z,80.65
2023-04-15T06:13:57.892Z,80.29
2023-04-15T06:15:01.105Z,80.23
2023-04-15T06:16:03.980Z,80.26
2023-04-15T06:17:06.867Z,79.93
2023-04-15T06:18:09.776Z,79.35
2023-04-15T06:19:13.632Z,79.41
2023-04-15T06:20:16.548Z,79.16
2023-04-15T06:21:19.557Z,78.97
2023-04-15T06:22:26.027Z,79.04
2023-04-15T06:23:28.928Z,79.33
2023-04-15T06:24:32.778Z,79.63
2023-04-15T06:25:35.609Z,79.38
2023-04-15T06:26:38.391Z,79.44
2023-04-15T06:27:41.275Z,79.51
2023-04-15T06:28:44.082Z,79.12
2023-04-15T06:29:46.930Z,78.44
2023-04-15T06:30:50.004Z,77.84
2023-04-15T06:31:53.140Z,78.00
2023-04-15T06:32:57.299Z,78.06
2023-04-15T06:34:00.153Z,78.12
2023-04-15T06:35:03.034Z,77.45
2023-04-15T06:36:05.964Z,76.87
2023-04-15T06:37:08.877Z,77.21
2023-04-15T06:38:11.855Z,76.77
2023-04-15T06:39:14.934Z,76.66
2023-04-15T06:40:18.364Z,77.00
2023-04-15T06:41:21.313Z,77.26
2023-04-15T06:42:24.419Z,77.18
2023-04-15T06:43:27.244Z,76.13
2023-04-15T06:44:33.282Z,75.84
2023-04-15T06:45:36.646Z,76.37
2023-04-15T06:46:39.527Z,76.26
2023-04-15T06:47:43.101Z,77.06
2023-04-15T06:48:46.047Z,76.40
2023-04-15T06:49:48.916Z,76.00
2023-04-15T06:50:52.030Z,74.44
2023-04-15T06:51:54.850Z,74.30
2023-04-15T06:52:58.568Z,75.50
2023-04-15T06:54:01.413Z,75.00
2023-04-15T06:55:04.567Z,74.94
2023-04-15T06:56:08.632Z,74.70
2023-04-15T06:57:11.790Z,73.89
2023-04-15T06:58:14.648Z,73.88
2023-04-15T06:59:17.537Z,74.15
2023-04-15T07:00:20.672Z,73.90
2023-04-15T07:01:23.838Z,74.24
2023-04-15T07:02:27.270Z,75.30
2023-04-15T07:03:32.134Z,75.76
2023-04-15T07:04:35.591Z,75.12
2023-04-15T07:05:39.745Z,74.12
2023-04-15T07:06:43.396Z,72.29
2023-04-15T07:07:46.636Z,74.24
2023-04-15T07:08:50.053Z,71.85
2023-04-15T07:09:54.981Z,72.76
2023-04-15T07:10:58.439Z,73.68
2023-04-15T07:12:01.377Z,72.29
2023-04-15T07:13:04.267Z,70.96
2023-04-15T07:14:07.972Z,71.38
2023-04-15T07:15:11.467Z,72.51
2023-04-15T07:16:14.528Z,72.08
2023-04-15T07:17:17.815Z,71.44
2023-04-15T07:18:20.645Z,73.52
2023-04-15T07:19:23.467Z,71.61
2023-04-15T07:20:26.477Z,71.95
2023-04-15T07:21:29.409Z,72.78
2023-04-15T07:22:32.422Z,73.02
2023-04-15T07:23:35.249Z,72.44
2023-04-15T07:24:38.108Z,72.64
2023-04-15T07:25:40.985Z,72.59
2023-04-15T07:26:43.882Z,72.65
2023-04-15T07:27:47.263Z,71.30
2023-04-15T07:28:50.879Z,73.08
2023-04-15T07:29:53.721Z,71.84
2023-04-15T07:30:58.542Z,72.43
2023-04-15T07:32:01.322Z,72.53
2023-04-15T07:33:04.972Z,71.98
2023-04-15T07:34:08.560Z,71.57
2023-04-15T07:35:12.026Z,71.43
2023-04-15T07:36:15.292Z,70.32
2023-04-15T07:37:21.238Z,70.07
2023-04-15T07:38:24.629Z,69.94
2023-04-15T07:39:27.728Z,70.11
2023-04-15T07:40:30.648Z,70.03
2023-04-15T07:41:33.454Z,70.29
2023-04-15T07:42:38.059Z,69.61
2023-04-15T07:43:41.785Z,69.19
2023-04-15T07:44:44.655Z,68.64
2023-04-15T07:45:47.516Z,69.75
2023-04-15T07:46:50.376Z,70.22
2023-04-15T07:47:53.332Z,69.02
2023-04-15T07:48:56.175Z,69.70
2023-04-15T07:49:59.025Z,70.09
2023-04-15T07:51:02.214Z,69.63
2023-04-15T07:52:05.242Z,70.02
2023-04-15T07:53:08.829Z,70.06
2023-04-15T07:54:11.756Z,70.16
2023-04-15T07:55:14.625Z,69.71
2023-04-15T07:56:17.726Z,69.66
2023-04-15T07:57:20.636Z,70.10
2023-04-15T07:58:23.581Z,70.66
2023-04-15T07:59:26.408Z,70.96
2023-04-15T08:00:29.497Z,71.13
2023-04-15T08:01:32.870Z,70.86
2023-04-15T08:02:38.174Z,71.25
2023-04-15T08:03:42.991Z,71.87
2023-04-15T08:04:46.266Z,70.22
2023-04-15T08:05:49.324Z,70.25
2023-04-15T08:06:52.241Z,71.23
2023-04-15T08:07:55.068Z,70.48
2023-04-15T08:08:58.764Z,71.09
2023-04-15T08:10:01.811Z,70.67
2023-04-15T08:11:04.688Z,69.52
2023-04-15T08:12:09.144Z,70.00
2023-04-15T08:13:12.196Z,69.52
2023-04-15T08:14:15.065Z,70.14
2023-04-15T08:15:18.185Z,68.53
2023-04-15T08:16:23.819Z,68.05
2023-04-15T08:17:26.987Z,68.14
2023-04-15T08:18:29.867Z,68.95
2023-04-15T08:19:32.809Z,68.72
2023-04-15T08:20:35.751Z,66.34
2023-04-15T08:21:38.620Z,66.72
2023-04-15T08:22:42.236Z,66.63
2023-04-15T08:23:46.055Z,67.15
2023-04-15T08:24:48.913Z,66.78
2023-04-15T08:25:52.081Z,66.65
2023-04-15T08:26:55.334Z,67.16
2023-04-15T08:27:59.058Z,67.05
2023-04-15T08:29:02.259Z,66.39
2023-04-15T08:30:06.076Z,65.49
2023-04-15T08:31:10.071Z,65.07
2023-04-15T08:32:13.017Z,66.81
2023-04-15T08:33:15.930Z,66.63
2023-04-15T08:34:19.459Z,66.27
2023-04-15T08:35:22.525Z,66.27
2023-04-15T08:36:25.417Z,66.74
2023-04-15T08:37:28.245Z,64.74
2023-04-15T08:38:31.063Z,66.06
2023-04-15T08:39:34.795Z,66.29
2023-04-15T08:40:43.570Z,66.00
2023-04-15T08:41:53.162Z,65.23
2023-04-15T08:42:59.372Z,66.37
2023-04-15T08:44:07.023Z,67.23
2023-04-15T08:45:12.582Z,66.74
2023-04-15T08:46:16.879Z,66.58
2023-04-15T08:47:22.997Z,66.14
2023-04-15T08:48:30.693Z,66.26
2023-04-15T08:49:34.161Z,66.65
2023-04-15T08:50:37.042Z,66.13
2023-04-15T08:51:44.136Z,66.99
2023-04-15T08:52:47.138Z,68.45
2023-04-15T08:53:51.400Z,68.53
2023-04-15T08:54:58.105Z,68.62
2023-04-15T08:56:07.158Z,69.07
2023-04-15T08:57:10.033Z,68.38
2023-04-15T08:58:17.018Z,68.47
2023-04-15T08:59:20.522Z,69.68
2023-04-15T09:00:24.775Z,70.48
2023-04-15T09:01:28.237Z,71.49
2023-04-15T09:02:31.319Z,70.06
2023-04-15T09:03:34.981Z,69.64
2023-04-15T09:04:37.881Z,69.32
2023-04-15T09:05:40.736Z,67.48
2023-04-15T09:06:43.677Z,66.84
2023-04-15T09:07:46.600Z,64.26
2023-04-15T09:08:49.671Z,64.89
2023-04-15T09:09:53.571Z,64.98
2023-04-15T09:10:56.464Z,64.34
2023-04-15T09:11:59.521Z,64.88
2023-04-15T09:13:03.393Z,64.93
2023-04-15T09:14:06.424Z,65.42
2023-04-15T09:15:12.391Z,66.63
2023-04-15T09:16:15.717Z,65.12
2023-04-15T09:17:25.982Z,64.08
2023-04-15T09:18:33.603Z,63.71
2023-04-15T09:19:36.438Z,63.85
2023-04-15T09:20:43.940Z,64.78
2023-04-15T09:21:49.203Z,65.28
2023-04-15T09:22:53.201Z,64.99
2023-04-15T09:24:01.568Z,65.26
2023-04-15T09:25:05.280Z,67.37
2023-04-15T09:26:08.999Z,67.00
2023-04-15T09:27:12.487Z,66.25
2023-04-15T09:28:15.347Z,66.24
2023-04-15T09:29:19.822Z,66.44
2023-04-15T09:30:22.683Z,68.12
2023-04-15T09:31:31.636Z,66.83
2023-04-15T09:32:34.491Z,66.45
2023-04-15T09:33:37.572Z,67.17
2023-04-15T09:34:40.690Z,65.42
2023-04-15T09:35:43.664Z,65.36
2023-04-15T09:36:51.141Z,66.68
2023-04-15T09:37:55.058Z,67.09
2023-04-15T09:39:02.311Z,67.61
2023-04-15T09:40:05.500Z,68.94
2023-04-15T09:41:20.929Z,69.76
2023-04-15T09:42:27.987Z,69.13
2023-04-15T09:43:41.687Z,69.40
2023-04-15T09:44:45.381Z,68.97
2023-04-15T09:45:55.427Z,69.32
2023-04-15T09:46:58.232Z,69.44
2023-04-15T09:48:16.413Z,69.99
2023-04-15T09:49:19.334Z,69.64
2023-04-15T09:50:22.645Z,70.39
2023-04-15T09:51:36.466Z,69.65
2023-04-15T09:52:44.694Z,69.81
2023-04-15T09:53:47.634Z,69.06
2023-04-15T09:54:54.280Z,69.62
2023-04-15T09:55:58.954Z,69.60
2023-04-15T09:57:10.529Z,69.58
2023-04-15T09:58:23.705Z,70.26
2023-04-15T09:59:26.576Z,69.03
2023-04-15T10:00:32.167Z,69.10
2023-04-15T10:01:35.862Z,69.36
2023-04-15T10:02:41.101Z,69.41
2023-04-15T10:03:44.913Z,69.07
2023-04-15T10:04:49.967Z,69.54
2023-04-15T10:05:55.291Z,69.71
2023-04-15T10:06:59.005Z,69.78
2023-04-15T10:08:03.772Z,69.18
2023-04-15T10:09:07.917Z,69.44
2023-04-15T10:10:12.905Z,69.84
2023-04-15T10:11:16.045Z,69.63
2023-04-15T10:12:20.202Z,70.05
2023-04-15T10:13:26.416Z,71.83
2023-04-15T10:14:33.992Z,71.63
2023-04-15T10:15:37.174Z,71.85
2023-04-15T10:16:45.648Z,72.68
2023-04-15T10:17:50.155Z,71.71
2023-04-15T10:18:56.986Z,72.89
2023-04-15T10:20:03.420Z,73.08
2023-04-15T10:21:07.396Z,72.14
2023-04-15T10:22:10.621Z,70.18
2023-04-15T10:23:13.948Z,70.76
2023-04-15T10:24:17.819Z,71.60
2023-04-15T10:25:21.350Z,72.08
2023-04-15T10:26:24.691Z,71.05
2023-04-15T10:27:29.192Z,71.18
2023-04-15T10:28:32.269Z,70.41
2023-04-15T10:29:35.896Z,70.38
2023-04-15T10:30:39.607Z,70.38
2023-04-15T10:31:43.038Z,71.20
2023-04-15T10:32:47.255Z,69.99
2023-04-15T10:33:52.181Z,70.94
2023-04-15T10:34:55.948Z,70.29
2023-04-15T10:35:59.390Z,70.32
2023-04-15T10:37:05.127Z,69.99
2023-04-15T10:38:35.995Z,69.99
2023-04-15T10:39:38.824Z,71.27
2023-04-15T10:40:41.868Z,71.60
2023-04-15T10:41:44.774Z,71.92
2023-04-15T10:42:48.612Z,71.66
2023-04-15T10:43:54.628Z,71.21
2023-04-15T10:44:58.443Z,70.71
2023-04-15T10:46:01.469Z,71.29
2023-04-15T10:47:11.906Z,72.22
2023-04-15T10:48:17.901Z,73.19
2023-04-15T10:49:27.456Z,73.63
2023-04-15T10:50:32.145Z,72.98
2023-04-15T10:51:35.081Z,73.02
2023-04-15T10:52:42.981Z,72.66
2023-04-15T10:53:45.824Z,73.37
2023-04-15T10:54:48.909Z,73.16
2023-04-15T10:55:52.555Z,73.74
2023-04-15T10:57:02.920Z,72.48
2023-04-15T10:58:05.917Z,72.04
2023-04-15T10:59:08.785Z,71.67
2023-04-15T11:00:14.245Z,71.75
2023-04-15T11:01:17.323Z,72.40
2023-04-15T11:02:20.255Z,72.72
2023-04-15T11:03:44.214Z,71.53
2023-04-15T11:05:00.204Z,71.90
2023-04-15T11:06:03.309Z,70.93
2023-04-15T11:07:09.127Z,72.71
2023-04-15T11:08:12.968Z,72.29
2023-04-15T11:09:33.742Z,73.33
2023-04-15T11:10:36.675Z,72.87
2023-04-15T11:12:11.123Z,72.97
2023-04-15T11:13:18.465Z,72.68
2023-04-15T11:14:21.380Z,73.19
2023-04-15T11:15:39.217Z,72.64
2023-04-15T11:16:46.262Z,72.52
2023-04-15T11:17:49.321Z,72.12
2023-04-15T11:18:57.122Z,72.47
2023-04-15T11:20:00.160Z,72.83
2023-04-15T11:21:06.223Z,73.48
2023-04-15T11:22:10.617Z,73.47
2023-04-15T11:23:15.015Z,74.27
2023-04-15T11:24:30.370Z,74.49
2023-04-15T11:25:35.725Z,73.96
2023-04-15T11:26:39.394Z,74.16
2023-04-15T11:27:42.309Z,74.33
2023-04-15T11:28:47.113Z,73.61
2023-04-15T11:29:50.044Z,74.06
2023-04-15T11:30:55.664Z,74.04
2023-04-15T11:32:10.473Z,74.56
2023-04-15T11:33:15.114Z,74.10
2023-04-15T11:34:24.307Z,73.78
2023-04-15T11:35:27.279Z,73.10
2023-04-15T11:36:31.593Z,73.41
2023-04-15T11:37:34.972Z,73.93
2023-04-15T11:38:39.354Z,75.08
2023-04-15T11:39:44.183Z,75.03
2023-04-15T11:40:47.746Z,74.54
2023-04-15T11:41:50.630Z,74.85
2023-04-15T11:43:10.016Z,72.98
2023-04-15T11:44:20.099Z,71.90
2023-04-15T11:45:23.049Z,70.90
2023-04-15T11:46:33.000Z,71.13
2023-04-15T11:47:35.866Z,71.08
2023-04-15T11:48:43.126Z,70.43
2023-04-15T11:49:46.029Z,71.21
2023-04-15T11:50:56.192Z,70.86
2023-04-15T11:51:59.252Z,72.13
2023-04-15T11:53:06.913Z,72.08
2023-04-15T11:54:11.168Z,72.29
2023-04-15T11:55:14.140Z,70.72
2023-04-15T11:56:22.463Z,71.34
2023-04-15T11:57:33.202Z,71.63
2023-04-15T11:58:41.000Z,71.02
2023-04-15T11:59:46.090Z,71.30
2023-04-15T12:00:52.046Z,71.76
2023-04-15T12:01:55.377Z,71.19
2023-04-15T12:03:25.098Z,71.06
2023-04-15T12:04:28.408Z,71.02
2023-04-15T12:05:31.921Z,71.12
2023-04-15T12:06:38.611Z,71.18
2023-04-15T12:08:01.367Z,72.27
2023-04-15T12:09:21.528Z,71.25
2023-04-15T12:10:26.996Z,71.87
2023-04-15T12:11:35.818Z,71.72
2023-04-15T12:12:39.019Z,71.51
2023-04-15T12:13:51.946Z,71.56
2023-04-15T12:14:55.120Z,72.45
2023-04-15T12:15:58.124Z,70.12
2023-04-15T12:17:06.125Z,70.12
2023-04-15T12:18:18.891Z,69.23
2023-04-15T12:19:27.759Z,69.51
2023-04-15T12:20:32.667Z,70.21
2023-04-15T12:21:39.425Z,69.53
2023-04-15T12:22:42.474Z,69.88
2023-04-15T12:23:56.381Z,70.48
2023-04-15T12:24:59.570Z,69.68
2023-04-15T12:26:06.773Z,70.39
2023-04-15T12:27:12.197Z,69.88
2023-04-15T12:28:15.047Z,69.60
2023-04-15T12:29:18.944Z,68.90
2023-04-15T12:30:21.774Z,68.39
2023-04-15T12:31:25.095Z,68.62
2023-04-15T12:32:28.633Z,69.70
2023-04-15T12:33:35.155Z,69.17
2023-04-15T12:34:50.553Z,69.12
2023-04-15T12:35:53.388Z,68.94
2023-04-15T12:36:56.996Z,69.11
2023-04-15T12:37:59.811Z,68.87
2023-04-15T12:39:02.878Z,68.76
2023-04-15T12:40:09.982Z,69.02
2023-04-15T12:41:12.872Z,70.47
2023-04-15T12:42:17.098Z,70.24
2023-04-15T12:43:20.453Z,70.92
2023-04-15T12:44:26.365Z,70.81
2023-04-15T12:45:29.968Z,70.48
2023-04-15T12:46:32.953Z,70.72
2023-04-15T12:47:35.881Z,69.97
2023-04-15T12:48:39.167Z,70.09
2023-04-15T12:49:42.643Z,70.79
2023-04-15T12:50:45.484Z,71.88
2023-04-15T12:51:52.881Z,71.51
2023-04-15T12:52:55.924Z,69.99
2023-04-15T12:53:59.798Z,70.36
2023-04-15T12:55:03.058Z,70.11
2023-04-15T12:56:06.066Z,69.98
2023-04-15T12:57:08.931Z,70.26
2023-04-15T12:58:13.076Z,69.64
2023-04-15T12:59:17.363Z,69.93
2023-04-15T13:00:20.366Z,70.15
2023-04-15T13:01:23.327Z,70.72
2023-04-15T13:02:28.417Z,70.91
2023-04-15T13:03:31.659Z,70.28
2023-04-15T13:04:34.813Z,70.77
2023-04-15T13:05:38.554Z,71.05
2023-04-15T13:06:41.588Z,71.27
2023-04-15T13:07:44.430Z,71.77
2023-04-15T13:08:57.330Z,72.53
2023-04-15T13:10:00.965Z,72.64
2023-04-15T13:11:03.899Z,72.70
2023-04-15T13:12:07.060Z,72.74
2023-04-15T13:13:10.337Z,72.15
2023-04-15T13:14:14.216Z,70.96
2023-04-15T13:15:17.335Z,71.13
2023-04-15T13:16:20.716Z,71.38
2023-04-15T13:17:23.615Z,71.81
2023-04-15T13:18:26.592Z,72.58
2023-04-15T13:19:29.475Z,71.93
2023-04-15T13:20:32.629Z,72.12
2023-04-15T13:21:36.673Z,72.90
2023-04-15T13:22:39.539Z,72.54
2023-04-15T13:23:45.135Z,72.02
2023-04-15T13:24:47.966Z,70.90
2023-04-15T13:25:50.810Z,68.79
2023-04-15T13:26:54.774Z,70.36
2023-04-15T13:27:58.866Z,69.82
2023-04-15T13:29:02.685Z,70.84
2023-04-15T13:30:07.236Z,68.18
2023-04-15T13:31:11.668Z,69.34
2023-04-15T13:32:14.493Z,68.84
2023-04-15T13:33:18.618Z,68.24
2023-04-15T13:34:21.590Z,66.99
2023-04-15T13:35:24.542Z,67.31
2023-04-15T13:36:28.594Z,67.17
2023-04-15T13:37:32.513Z,67.66
2023-04-15T13:38:35.362Z,66.77
2023-04-15T13:39:38.243Z,66.57
2023-04-15T13:40:41.098Z,66.36
2023-04-15T13:41:44.023Z,67.25
2023-04-15T13:42:47.142Z,68.19
2023-04-15T13:43:50.006Z,68.43
2023-04-15T13:44:53.008Z,68.35
2023-04-15T13:45:55.996Z,67.39
2023-04-15T13:46:59.424Z,66.72